Time;durP1;ratioP1;P1;durP2;ratioP2;P2;SDS_P1;SDS_P2;PMS_P1;PMS_P2;Temp;Humidity;BMP_temperature;BMP_pressure;BME280_temperature;BME280_humidity;BME280_pressure;Samples;Min_cycle;Max_cycle;Signal;HPM_P1;HPM_P2
2022/01/11 00:04:17;;;;;;;44.80;23.13;;;;;0.90;102456.00;;;;9879837;30;20200;-79
2022/01/11 00:09:32;;;;;;;38.47;22.50;;;;;0.90;102458.00;;;;9895806;29;20239;-80
2022/01/11 00:14:34;;;;;;;38.57;21.97;;;;;0.80;102468.00;;;;9880174;29;20260;-80
2022/01/11 00:19:36;;;;;;;42.00;21.53;;;;;0.80;102456.00;;;;9887536;29;20194;-79
2022/01/11 00:24:39;;;;;;;39.63;21.50;;;;;0.80;102459.00;;;;9915614;29;20255;-80
2022/01/11 00:29:44;;;;;;;35.73;20.60;;;;;0.70;102479.00;;;;9901422;29;20215;-80
2022/01/11 00:34:55;;;;;;;43.67;22.77;;;;;0.70;102469.00;;;;9878900;29;20200;-80
2022/01/11 00:39:59;;;;;;;38.53;23.20;;;;;0.70;102475.00;;;;9864882;30;20212;-80
2022/01/11 00:45:09;;;;;;;42.33;23.60;;;;;0.70;102478.00;;;;9894522;30;20223;-80
2022/01/11 00:50:11;;;;;;;40.17;22.60;;;;;0.70;102468.00;;;;9878754;30;20230;-80
2022/01/11 00:55:14;;;;;;;45.87;24.50;;;;;0.60;102464.00;;;;9887106;29;20207;-79
2022/01/11 01:00:16;;;;;;;41.63;23.57;;;;;0.60;102461.00;;;;9915601;29;20604;-80
2022/01/11 01:05:18;;;;;;;42.30;24.27;;;;;0.60;102460.00;;;;9915663;29;20219;-79
2022/01/11 01:10:26;;;;;;;45.50;23.33;;;;;0.60;102464.00;;;;9924246;29;20278;-80
2022/01/11 01:15:34;;;;;;;48.63;24.87;;;;;0.60;102448.00;;;;9953417;29;20191;-80
2022/01/11 01:20:44;;;;;;;39.70;21.87;;;;;0.50;102453.00;;;;9924026;29;20263;-80
2022/01/11 01:25:47;;;;;;;43.20;22.20;;;;;0.50;102457.00;;;;9937697;29;20671;-80
2022/01/11 01:30:51;;;;;;;41.33;22.07;;;;;0.50;102466.00;;;;9903447;30;20227;-79
2022/01/11 01:35:59;;;;;;;41.90;23.40;;;;;0.50;102465.00;;;;9880618;29;20278;-80
2022/01/11 01:41:11;;;;;;;41.90;22.07;;;;;0.50;102472.00;;;;9907931;29;20554;-80
2022/01/11 01:46:14;;;;;;;40.87;22.57;;;;;0.50;102481.00;;;;9937503;29;20207;-80
2022/01/11 01:51:17;;;;;;;36.97;20.40;;;;;0.50;102487.00;;;;9907216;29;20227;-79
2022/01/11 01:56:21;;;;;;;40.50;22.30;;;;;0.40;102491.00;;;;9892189;29;20294;-79
2022/01/11 02:01:26;;;;;;;39.40;21.90;;;;;0.30;102485.00;;;;9907236;29;20238;-79
2022/01/11 02:06:28;;;;;;;38.53;20.13;;;;;0.30;102496.00;;;;9906708;29;20261;-79
2022/01/11 02:11:31;;;;;;;36.67;19.80;;;;;0.30;102499.00;;;;9921447;29;20227;-79
2022/01/11 02:16:34;;;;;;;33.33;20.33;;;;;0.30;102510.00;;;;9921450;29;20207;-79
2022/01/11 02:21:38;;;;;;;36.03;20.20;;;;;0.20;102505.00;;;;9935525;29;20199;-79
2022/01/11 02:26:40;;;;;;;36.20;19.13;;;;;0.20;102503.00;;;;9935736;29;20248;-79
2022/01/11 02:31:42;;;;;;;37.37;21.00;;;;;0.20;102513.00;;;;9906062;29;20226;-79
2022/01/11 02:36:46;;;;;;;33.50;20.30;;;;;0.10;102514.00;;;;9906098;29;20203;-80
2022/01/11 02:42:04;;;;;;;34.13;18.17;;;;;0.10;102519.00;;;;9920583;29;20207;-79
2022/01/11 02:47:11;;;;;;;37.47;20.20;;;;;0.10;102524.00;;;;9890299;29;20207;-80
2022/01/11 02:52:13;;;;;;;36.17;21.07;;;;;0.10;102515.00;;;;9905017;29;20330;-79
2022/01/11 02:57:20;;;;;;;37.17;20.43;;;;;0.10;102520.00;;;;9905057;29;20207;-80
2022/01/11 03:02:26;;;;;;;37.87;18.50;;;;;0.10;102528.00;;;;9905126;29;20195;-80
2022/01/11 03:07:29;;;;;;;34.83;18.80;;;;;0.10;102518.00;;;;9919365;29;20245;-79
2022/01/11 03:12:33;;;;;;;38.60;20.50;;;;;0.10;102529.00;;;;9919146;29;20688;-80
2022/01/11 03:17:35;;;;;;;37.23;19.13;;;;;0.00;102519.00;;;;9934606;29;20199;-79
2022/01/11 03:22:38;;;;;;;31.33;17.03;;;;;0.00;102524.00;;;;9903939;29;20203;-80
2022/01/11 03:27:42;;;;;;;32.17;18.53;;;;;0.00;102520.00;;;;9892428;29;20209;-80
2022/01/11 03:32:50;;;;;;;32.30;17.27;;;;;0.00;102519.00;;;;9934282;29;20230;-80
2022/01/11 03:37:58;;;;;;;22.50;13.73;;;;;-0.10;102508.00;;;;9928061;29;20207;-80
2022/01/11 03:43:01;;;;;;;24.07;14.10;;;;;-0.10;102526.00;;;;9881888;30;20202;-79
2022/01/11 03:48:05;;;;;;;28.70;14.83;;;;;-0.10;102531.00;;;;9881179;30;20200;-79
2022/01/11 03:53:12;;;;;;;23.37;13.40;;;;;-0.10;102530.00;;;;9866958;30;20235;-79
2022/01/11 03:58:21;;;;;;;21.37;12.90;;;;;-0.10;102539.00;;;;9881975;30;20234;-79
2022/01/11 04:03:24;;;;;;;21.40;12.93;;;;;-0.10;102556.00;;;;9894286;30;20676;-79
2022/01/11 04:08:27;;;;;;;22.80;12.33;;;;;-0.10;102544.00;;;;9845252;29;20371;-78
2022/01/11 04:13:29;;;;;;;24.57;14.43;;;;;-0.20;102547.00;;;;9919833;29;20226;-79
2022/01/11 04:18:31;;;;;;;24.53;14.07;;;;;-0.30;102544.00;;;;9865342;30;20211;-79
2022/01/11 04:23:34;;;;;;;18.67;12.00;;;;;-0.30;102541.00;;;;9880034;30;20745;-79
2022/01/11 04:28:37;;;;;;;20.83;11.70;;;;;-0.40;102552.00;;;;9879864;30;20208;-79
2022/01/11 04:33:44;;;;;;;21.23;11.10;;;;;-0.40;102543.00;;;;9879209;30;20248;-79
2022/01/11 04:38:47;;;;;;;17.07;10.77;;;;;-0.40;102535.00;;;;9864846;30;20207;-79
2022/01/11 04:43:50;;;;;;;18.10;11.03;;;;;-0.30;102540.00;;;;9879698;30;20206;-79
2022/01/11 04:49:05;;;;;;;19.67;11.17;;;;;-0.30;102545.00;;;;9862484;30;20286;-79
2022/01/11 04:54:41;;;;;;;18.50;9.97;;;;;-0.20;102539.00;;;;9888123;30;20231;-79
2022/01/11 05:00:39;;;;;;;16.67;10.87;;;;;-0.20;102538.00;;;;9880751;30;20207;-79
2022/01/11 05:06:15;;;;;;;18.00;10.20;;;;;-0.10;102535.00;;;;9860100;30;20747;-80
2022/01/11 05:11:51;;;;;;;19.93;11.13;;;;;-0.10;102546.00;;;;9888898;29;20250;-79
2022/01/11 05:17:28;;;;;;;20.00;11.67;;;;;0.00;102542.00;;;;9879500;30;20202;-79
2022/01/11 05:23:04;;;;;;;19.20;10.53;;;;;0.10;102542.00;;;;9870804;30;20663;-79
2022/01/11 05:28:40;;;;;;;23.70;11.13;;;;;0.10;102533.00;;;;9898745;29;20210;-79
2022/01/11 05:34:16;;;;;;;18.30;10.63;;;;;0.20;102542.00;;;;9910748;29;20229;-78
2022/01/11 05:39:53;;;;;;;17.73;9.90;;;;;0.20;102552.00;;;;9874187;29;20210;-79
2022/01/11 05:45:28;;;;;;;19.17;10.20;;;;;0.20;102546.00;;;;9896995;29;20207;-80
2022/01/11 05:51:06;;;;;;;19.37;10.53;;;;;0.30;102549.00;;;;9909692;29;20226;-79
2022/01/11 05:56:43;;;;;;;20.73;10.23;;;;;0.30;102556.00;;;;9858537;29;20214;-79
2022/01/11 06:02:20;;;;;;;22.97;11.77;;;;;0.40;102572.00;;;;9894110;30;20207;-79
2022/01/11 06:07:56;;;;;;;20.00;11.27;;;;;0.50;102580.00;;;;9885161;29;20231;-79
2022/01/11 06:13:33;;;;;;;26.20;12.37;;;;;0.50;102587.00;;;;9912877;29;20241;-79
2022/01/11 06:19:10;;;;;;;21.13;10.67;;;;;0.50;102583.00;;;;9877349;30;20279;-79
2022/01/11 06:24:57;;;;;;;21.97;11.43;;;;;0.50;102586.00;;;;9881700;29;20207;-80
2022/01/11 06:30:33;;;;;;;21.43;10.90;;;;;0.50;102596.00;;;;9902601;29;20687;-79
2022/01/11 06:36:12;;;;;;;20.70;10.63;;;;;0.50;102604.00;;;;9871834;29;20223;-79
2022/01/11 06:41:49;;;;;;;18.27;10.80;;;;;0.50;102610.00;;;;9906751;29;20684;-79
2022/01/11 06:47:32;;;;;;;17.00;9.33;;;;;0.50;102613.00;;;;9915758;29;20680;-79
2022/01/11 06:53:09;;;;;;;17.53;9.43;;;;;0.50;102623.00;;;;9898398;29;20216;-80
2022/01/11 06:58:46;;;;;;;18.17;9.90;;;;;0.50;102625.00;;;;9910765;29;20672;-78
2022/01/11 07:04:22;;;;;;;19.13;10.03;;;;;0.60;102633.00;;;;9877698;30;20206;-79
2022/01/11 07:09:58;;;;;;;19.07;9.70;;;;;0.50;102640.00;;;;9893220;29;20239;-79
2022/01/11 07:15:37;;;;;;;21.10;9.43;;;;;0.60;102649.00;;;;9875353;29;20782;-80
2022/01/11 07:21:14;;;;;;;17.87;9.97;;;;;0.60;102651.00;;;;9907919;29;20210;-79
2022/01/11 07:26:51;;;;;;;17.07;9.97;;;;;0.70;102663.00;;;;9890239;29;20218;-80
2022/01/11 07:32:27;;;;;;;18.50;8.97;;;;;0.70;102665.00;;;;9896503;29;20231;-78
2022/01/11 07:38:05;;;;;;;24.77;10.80;;;;;0.80;102672.00;;;;9911838;29;20214;-79
2022/01/11 07:43:42;;;;;;;19.97;11.00;;;;;0.90;102679.00;;;;9911929;29;20751;-79
2022/01/11 07:49:28;;;;;;;20.07;9.57;;;;;0.90;102657.00;;;;9876828;29;20192;-79
2022/01/11 07:55:06;;;;;;;14.20;9.07;;;;;0.90;102663.00;;;;9893857;29;20867;-79
2022/01/11 08:00:42;;;;;;;18.13;9.37;;;;;1.00;102670.00;;;;9900782;29;20207;-79
2022/01/11 08:06:26;;;;;;;24.27;11.43;;;;;1.10;102687.00;;;;9874584;29;20223;-79
2022/01/11 08:12:13;;;;;;;31.30;13.57;;;;;1.20;102694.00;;;;9947621;29;20222;-79
2022/01/11 08:17:49;;;;;;;16.73;8.50;;;;;1.30;102684.00;;;;9888785;30;20220;-79
2022/01/11 08:23:25;;;;;;;19.70;9.37;;;;;1.40;102695.00;;;;9884490;29;20214;-77
2022/01/11 08:29:01;;;;;;;19.13;10.80;;;;;1.50;102698.00;;;;9891713;29;20204;-79
2022/01/11 08:34:37;;;;;;;17.23;9.27;;;;;1.60;102698.00;;;;9882922;29;20227;-79
2022/01/11 08:40:14;;;;;;;18.87;9.53;;;;;1.80;102701.00;;;;9882991;29;20202;-78
2022/01/11 08:45:58;;;;;;;20.30;9.97;;;;;1.90;102698.00;;;;9876478;29;20214;-77
2022/01/11 08:51:52;;;;;;;19.90;9.87;;;;;2.00;102708.00;;;;9886418;29;20234;-79
2022/01/11 08:57:29;;;;;;;24.10;10.73;;;;;2.20;102716.00;;;;9898566;29;20213;-77
2022/01/11 09:03:06;;;;;;;17.80;10.43;;;;;2.60;102716.00;;;;9906080;29;20199;-77
2022/01/11 09:08:44;;;;;;;17.63;10.10;;;;;3.30;102723.00;;;;9890142;29;20239;-79
2022/01/11 09:14:20;;;;;;;23.07;11.50;;;;;3.70;102720.00;;;;9908534;29;20230;-78
2022/01/11 09:19:56;;;;;;;13.43;8.70;;;;;3.60;102723.00;;;;9895247;29;20233;-77
2022/01/11 09:25:33;;;;;;;21.10;9.43;;;;;3.70;102730.00;;;;9907291;29;20557;-77
2022/01/11 09:31:11;;;;;;;16.17;10.33;;;;;3.90;102736.00;;;;9898494;29;20230;-77
2022/01/11 09:36:51;;;;;;;16.07;9.73;;;;;4.00;102745.00;;;;9874118;29;20242;-79
2022/01/11 09:42:27;;;;;;;14.97;8.90;;;;;4.20;102744.00;;;;9893737;30;20740;-78
2022/01/11 09:48:05;;;;;;;17.00;9.50;;;;;5.10;102740.00;;;;9909215;29;20206;-77
2022/01/11 09:53:42;;;;;;;15.87;9.03;;;;;5.50;102743.00;;;;9897981;29;20227;-77
2022/01/11 09:59:21;;;;;;;17.23;9.67;;;;;5.90;102751.00;;;;9903658;29;20214;-77
2022/01/11 10:05:16;;;;;;;18.43;9.97;;;;;6.50;102729.00;;;;9877070;29;20200;-78
2022/01/11 10:11:01;;;;;;;13.97;9.23;;;;;7.10;102740.00;;;;9879790;29;20238;-78
2022/01/11 10:16:37;;;;;;;12.93;8.30;;;;;7.60;102745.00;;;;9876354;29;20214;-77
2022/01/11 10:22:23;;;;;;;14.37;8.43;;;;;7.90;102737.00;;;;9903165;29;20196;-77
2022/01/11 10:28:05;;;;;;;14.60;7.40;;;;;8.20;102732.00;;;;9877649;29;20207;-78
2022/01/11 10:34:06;;;;;;;12.17;7.77;;;;;8.40;102732.00;;;;9889538;30;20238;-77
2022/01/11 10:39:48;;;;;;;12.10;8.00;;;;;8.80;102726.00;;;;9903051;29;20247;-78
2022/01/11 10:45:35;;;;;;;11.93;7.47;;;;;9.00;102737.00;;;;9875268;29;20206;-77
2022/01/11 10:51:10;;;;;;;10.50;6.77;;;;;9.00;102734.00;;;;9874164;29;20303;-77
2022/01/11 10:56:46;;;;;;;11.90;7.53;;;;;8.60;102742.00;;;;9888460;29;20211;-77
2022/01/11 11:02:32;;;;;;;12.97;7.20;;;;;8.30;102739.00;;;;9898192;30;20972;-77
2022/01/11 11:08:12;;;;;;;13.03;7.87;;;;;8.00;102754.00;;;;9902378;29;20235;-77
2022/01/11 11:13:57;;;;;;;11.90;7.33;;;;;7.50;102749.00;;;;9873141;29;20330;-78
2022/01/11 11:20:00;;;;;;;13.70;7.93;;;;;6.80;102760.00;;;;9883798;29;20255;-77
2022/01/11 11:25:23;;;;;;;11.30;7.60;;;;;6.40;102769.00;;;;9916333;29;20274;-80
2022/01/11 11:30:25;;;;;;;14.57;7.60;;;;;6.20;102779.00;;;;9925801;29;20627;-79
2022/01/11 11:35:28;;;;;;;14.70;8.53;;;;;6.00;102769.00;;;;9906641;29;20223;-76
2022/01/11 11:40:31;;;;;;;14.23;8.10;;;;;5.90;102772.00;;;;9891616;29;20675;-76
2022/01/11 11:45:37;;;;;;;15.87;8.40;;;;;5.90;102779.00;;;;9904559;29;20199;-76
2022/01/11 11:51:01;;;;;;;13.53;7.57;;;;;5.90;102778.00;;;;9901084;29;20230;-76
2022/01/11 11:56:20;;;;;;;15.80;7.83;;;;;5.90;102783.00;;;;9901427;29;20256;-76
2022/01/11 12:01:41;;;;;;;11.60;7.87;;;;;5.90;102772.00;;;;9905178;29;20260;-78
2022/01/11 12:06:46;;;;;;;15.63;7.97;;;;;5.90;102770.00;;;;9900101;29;20231;-79
2022/01/11 12:11:50;;;;;;;13.33;7.60;;;;;5.90;102776.00;;;;9856896;30;20251;-78
2022/01/11 12:16:52;;;;;;;14.57;8.57;;;;;6.00;102773.00;;;;9909097;29;20207;-76
2022/01/11 12:21:53;;;;;;;15.83;8.10;;;;;6.00;102766.00;;;;9879655;30;20730;-76
2022/01/11 12:26:58;;;;;;;13.87;7.87;;;;;6.20;102762.00;;;;9893804;29;20809;-77
2022/01/11 12:32:05;;;;;;;13.47;8.17;;;;;6.30;102747.00;;;;9899996;29;20258;-80
2022/01/11 12:37:23;;;;;;;15.43;7.50;;;;;6.40;102746.00;;;;9899033;29;20598;-75
2022/01/11 12:42:27;;;;;;;14.37;7.03;;;;;6.50;102737.00;;;;9864608;30;20539;-76
2022/01/11 12:47:46;;;;;;;11.50;6.37;;;;;6.60;102733.00;;;;9862934;30;20276;-76
2022/01/11 12:52:48;;;;;;;10.07;6.00;;;;;6.70;102731.00;;;;9876828;30;20223;-76
2022/01/11 12:57:50;;;;;;;12.70;6.03;;;;;6.90;102733.00;;;;9915131;29;20240;-76
2022/01/11 13:02:52;;;;;;;13.97;6.03;;;;;7.00;102732.00;;;;9929988;29;20202;-77
2022/01/11 13:07:54;;;;;;;11.63;7.10;;;;;6.80;102733.00;;;;9899205;29;20280;-76
2022/01/11 13:13:14;;;;;;;11.87;6.37;;;;;6.70;102731.00;;;;9909568;29;20250;-77
2022/01/11 13:18:25;;;;;;;9.00;5.37;;;;;6.60;102731.00;;;;9896601;29;20668;-77
2022/01/11 13:23:32;;;;;;;8.83;5.20;;;;;6.70;102726.00;;;;9878193;29;21027;-77
2022/01/11 13:28:35;;;;;;;13.03;6.10;;;;;7.30;102728.00;;;;9897068;29;20199;-77
2022/01/11 13:33:47;;;;;;;13.30;6.20;;;;;7.50;102727.00;;;;9918199;29;20225;-76
2022/01/11 13:38:52;;;;;;;13.90;5.77;;;;;7.50;102720.00;;;;9922377;29;20268;-76
2022/01/11 13:43:58;;;;;;;7.83;5.53;;;;;7.50;102717.00;;;;9890933;29;20191;-76
2022/01/11 13:49:01;;;;;;;9.23;5.30;;;;;7.40;102724.00;;;;9901442;29;20199;-76
2022/01/11 13:54:05;;;;;;;11.57;5.57;;;;;7.30;102719.00;;;;9884121;30;20246;-76
2022/01/11 13:59:10;;;;;;;10.57;5.63;;;;;7.30;102723.00;;;;9882163;29;20233;-76
2022/01/11 14:04:18;;;;;;;9.93;5.40;;;;;7.40;102724.00;;;;9935058;29;20625;-77
2022/01/11 14:09:38;;;;;;;10.83;6.43;;;;;7.40;102725.00;;;;9897313;29;20262;-79
2022/01/11 14:14:40;;;;;;;11.13;6.70;;;;;7.30;102728.00;;;;9899669;29;20584;-76
2022/01/11 14:20:05;;;;;;;12.43;6.27;;;;;7.20;102727.00;;;;9912095;29;20211;-76
2022/01/11 14:25:10;;;;;;;12.37;7.00;;;;;7.00;102735.00;;;;9868534;30;20206;-77
2022/01/11 14:30:16;;;;;;;12.23;6.80;;;;;6.50;102732.00;;;;9886143;29;20226;-77
2022/01/11 14:35:22;;;;;;;11.60;7.00;;;;;6.20;102730.00;;;;9904895;29;20219;-77
2022/01/11 14:40:28;;;;;;;10.00;6.70;;;;;5.80;102742.00;;;;9898934;29;20289;-78
2022/01/11 14:45:30;;;;;;;12.33;6.80;;;;;5.60;102745.00;;;;9900785;29;20199;-77
2022/01/11 14:50:32;;;;;;;11.57;6.03;;;;;5.40;102742.00;;;;9914281;29;21169;-79
2022/01/11 14:55:47;;;;;;;11.33;6.90;;;;;5.20;102743.00;;;;9913234;29;20215;-79
2022/01/11 15:00:55;;;;;;;10.83;6.17;;;;;5.10;102752.00;;;;9925676;29;20729;-76
2022/01/11 15:06:03;;;;;;;9.53;6.17;;;;;5.00;102761.00;;;;9909484;29;20728;-76
2022/01/11 15:11:19;;;;;;;11.33;5.70;;;;;5.00;102767.00;;;;9902754;29;20199;-76
2022/01/11 15:16:27;;;;;;;13.03;6.10;;;;;4.90;102788.00;;;;9902287;29;20209;-79
2022/01/11 15:21:31;;;;;;;8.50;5.43;;;;;4.90;102773.00;;;;9881791;30;20653;-79
2022/01/11 15:26:41;;;;;;;14.30;6.37;;;;;4.80;102780.00;;;;9891074;29;20202;-78
2022/01/11 15:31:43;;;;;;;9.77;5.37;;;;;4.70;102779.00;;;;9896437;29;20583;-79
2022/01/11 15:36:46;;;;;;;11.63;6.33;;;;;4.60;102790.00;;;;9889473;29;20207;-78
2022/01/11 15:41:50;;;;;;;12.60;5.83;;;;;4.50;102795.00;;;;9903249;29;20279;-79
2022/01/11 15:46:52;;;;;;;8.63;5.23;;;;;4.30;102798.00;;;;9917612;29;20281;-79
2022/01/11 15:51:54;;;;;;;16.63;6.47;;;;;4.20;102790.00;;;;9902122;29;20219;-77
2022/01/11 15:56:56;;;;;;;11.90;6.87;;;;;4.10;102784.00;;;;9901144;29;20264;-78
2022/01/11 16:01:59;;;;;;;10.70;6.20;;;;;4.00;102790.00;;;;9900966;29;20199;-78
2022/01/11 16:07:02;;;;;;;10.37;6.13;;;;;3.80;102792.00;;;;9891988;29;20333;-78
2022/01/11 16:12:05;;;;;;;17.03;7.57;;;;;3.70;102777.00;;;;9879467;30;20276;-79
2022/01/11 16:17:06;;;;;;;15.20;7.27;;;;;3.60;102787.00;;;;9909378;29;20198;-79
2022/01/11 16:22:08;;;;;;;20.37;7.13;;;;;3.40;102801.00;;;;9906943;29;20278;-79
2022/01/11 16:27:10;;;;;;;15.57;7.17;;;;;3.20;102817.00;;;;9908898;30;20204;-79
2022/01/11 16:32:12;;;;;;;12.70;6.87;;;;;3.00;102827.00;;;;9909554;29;20230;-77
2022/01/11 16:37:15;;;;;;;11.93;6.47;;;;;2.80;102824.00;;;;9868021;29;20239;-79
2022/01/11 16:47:38;;;;;;;19.90;10.90;;;;;2.70;102833.00;;;;9899838;29;20223;-79
2022/01/11 16:52:40;;;;;;;14.17;7.90;;;;;2.60;102842.00;;;;9906769;29;20269;-79
2022/01/11 16:57:42;;;;;;;15.83;8.30;;;;;2.50;102852.00;;;;9906591;29;20239;-79
2022/01/11 17:02:44;;;;;;;12.97;7.67;;;;;2.40;102850.00;;;;9917673;29;20268;-79
2022/01/11 17:07:46;;;;;;;13.93;8.80;;;;;2.30;102844.00;;;;9920433;29;20230;-79
2022/01/11 17:12:49;;;;;;;22.83;12.27;;;;;2.20;102852.00;;;;9941496;29;20741;-80
2022/01/11 17:17:51;;;;;;;18.53;8.70;;;;;2.20;102865.00;;;;9947329;29;20202;-79
2022/01/11 17:22:53;;;;;;;17.17;10.00;;;;;2.10;102868.00;;;;9914307;29;20203;-79
2022/01/11 17:27:55;;;;;;;19.03;10.03;;;;;2.00;102875.00;;;;9916819;29;20237;-79
2022/01/11 17:32:58;;;;;;;17.27;10.47;;;;;1.90;102870.00;;;;9910104;29;20240;-80
2022/01/11 17:38:01;;;;;;;19.77;10.30;;;;;1.70;102863.00;;;;9897277;29;20210;-80
2022/01/11 17:43:04;;;;;;;24.90;13.27;;;;;1.80;102874.00;;;;9869716;30;20203;-80
2022/01/11 17:48:06;;;;;;;22.20;10.73;;;;;1.80;102872.00;;;;9939564;29;20195;-79
2022/01/11 17:53:08;;;;;;;20.17;9.90;;;;;1.80;102874.00;;;;9918476;29;20219;-80
2022/01/11 17:58:11;;;;;;;22.00;11.13;;;;;1.90;102873.00;;;;9915174;29;20610;-79
2022/01/11 18:03:17;;;;;;;15.87;9.53;;;;;2.10;102898.00;;;;9897057;29;20672;-79
2022/01/11 18:08:19;;;;;;;16.97;10.23;;;;;2.10;102872.00;;;;9905405;29;20235;-80
2022/01/11 18:13:21;;;;;;;16.83;9.87;;;;;2.00;102870.00;;;;9900575;29;20652;-79
2022/01/11 18:18:24;;;;;;;20.13;11.80;;;;;2.00;102879.00;;;;9892022;29;20683;-81
2022/01/11 18:23:27;;;;;;;19.50;10.07;;;;;1.90;102880.00;;;;9884821;29;20204;-79
2022/01/11 18:28:30;;;;;;;19.40;9.70;;;;;1.90;102870.00;;;;9953989;29;20203;-79
2022/01/11 18:33:31;;;;;;;22.73;10.87;;;;;2.10;102872.00;;;;9914057;29;20210;-79
2022/01/11 18:38:33;;;;;;;22.27;10.63;;;;;2.00;102885.00;;;;9918600;29;20204;-80
2022/01/11 18:43:35;;;;;;;21.70;9.70;;;;;1.90;102900.00;;;;9898739;29;20203;-80
2022/01/11 18:48:38;;;;;;;27.07;11.77;;;;;1.80;102896.00;;;;9898571;29;20202;-80
2022/01/11 18:53:42;;;;;;;20.57;11.30;;;;;1.70;102902.00;;;;9933789;29;20260;-80
2022/01/11 18:58:46;;;;;;;19.97;12.07;;;;;1.70;102910.00;;;;9870812;29;20233;-80
2022/01/11 19:03:47;;;;;;;27.93;13.53;;;;;1.60;102902.00;;;;9925810;29;20190;-79
2022/01/11 19:08:52;;;;;;;25.37;13.17;;;;;1.60;102918.00;;;;9904375;29;21105;-80
2022/01/11 19:13:57;;;;;;;23.93;12.20;;;;;1.60;102923.00;;;;9892827;29;20642;-79
2022/01/11 19:18:59;;;;;;;23.33;11.63;;;;;1.60;102925.00;;;;9903511;29;20211;-80
2022/01/11 19:24:01;;;;;;;21.30;12.60;;;;;1.60;102914.00;;;;9911459;29;20190;-80
2022/01/11 19:29:03;;;;;;;24.97;12.40;;;;;1.60;102906.00;;;;9878724;29;20219;-80
2022/01/11 19:34:06;;;;;;;22.40;12.47;;;;;1.60;102915.00;;;;9920888;29;20215;-80
2022/01/11 19:39:11;;;;;;;26.30;12.20;;;;;1.50;102915.00;;;;9918359;29;20203;-80
2022/01/11 19:44:15;;;;;;;25.23;13.77;;;;;1.50;102918.00;;;;9917551;29;20196;-80
2022/01/11 19:49:17;;;;;;;22.17;12.67;;;;;1.40;102923.00;;;;9916907;29;20267;-81
2022/01/11 19:54:19;;;;;;;23.97;13.27;;;;;1.40;102932.00;;;;9920693;29;20660;-79
2022/01/11 19:59:21;;;;;;;26.30;13.50;;;;;1.30;102937.00;;;;9909006;29;20195;-80
2022/01/11 20:04:23;;;;;;;21.23;12.83;;;;;1.20;102941.00;;;;9927265;29;20213;-79
2022/01/11 20:09:25;;;;;;;22.73;12.33;;;;;1.20;102937.00;;;;9880486;29;20283;-79
2022/01/11 20:14:27;;;;;;;23.97;12.77;;;;;1.20;102947.00;;;;9938388;29;20678;-79
2022/01/11 20:19:32;;;;;;;24.53;13.67;;;;;1.20;102953.00;;;;9914347;29;20630;-78
2022/01/11 20:29:56;;;;;;;25.63;13.43;;;;;1.20;102950.00;;;;9890862;29;20569;-80
2022/01/11 20:34:58;;;;;;;24.83;13.13;;;;;1.20;102959.00;;;;9897793;29;20912;-79
2022/01/11 20:40:03;;;;;;;27.37;13.90;;;;;1.10;102968.00;;;;9926797;29;20212;-79
2022/01/11 20:45:09;;;;;;;31.20;13.77;;;;;1.00;102971.00;;;;9908373;29;20244;-79
2022/01/11 20:50:36;;;;;;;24.87;13.93;;;;;0.90;102964.00;;;;9879109;29;20211;-80
2022/01/11 20:55:43;;;;;;;26.20;13.83;;;;;0.80;102966.00;;;;9901701;29;20218;-79
2022/01/11 21:00:46;;;;;;;28.30;12.83;;;;;0.70;102969.00;;;;9909433;29;20259;-80
2022/01/11 21:05:49;;;;;;;25.87;13.13;;;;;0.60;102953.00;;;;9901006;29;20195;-78
2022/01/11 21:10:52;;;;;;;25.33;14.20;;;;;0.60;102958.00;;;;9923343;29;20612;-79
2022/01/11 21:20:58;;;;;;;28.97;13.87;;;;;0.50;102959.00;;;;9942874;29;20277;-78
2022/01/11 21:26:04;;;;;;;25.50;14.10;;;;;0.40;102956.00;;;;9908761;29;20210;-78
2022/01/11 21:31:08;;;;;;;23.83;13.27;;;;;0.50;102964.00;;;;9892630;29;20260;-79
2022/01/11 21:36:10;;;;;;;27.53;14.27;;;;;0.60;102945.00;;;;9897255;29;20330;-79
2022/01/11 21:41:14;;;;;;;21.43;12.77;;;;;0.70;102960.00;;;;9890847;29;20268;-78
2022/01/11 21:46:16;;;;;;;25.07;13.17;;;;;0.90;102953.00;;;;9900741;29;20548;-79
2022/01/11 21:51:20;;;;;;;21.70;12.77;;;;;0.90;102962.00;;;;9891910;29;20235;-78
2022/01/11 21:56:23;;;;;;;25.60;13.03;;;;;1.00;102973.00;;;;9921899;29;20676;-79
2022/01/11 22:01:25;;;;;;;26.30;14.10;;;;;0.90;102974.00;;;;9932044;29;20198;-80
2022/01/11 22:06:27;;;;;;;26.97;14.00;;;;;0.80;102977.00;;;;9893006;29;20227;-79
2022/01/11 22:11:29;;;;;;;24.47;13.63;;;;;0.70;102985.00;;;;9944611;29;20202;-79
2022/01/11 22:16:49;;;;;;;27.13;13.10;;;;;0.60;102983.00;;;;9910971;29;20207;-78
2022/01/11 22:21:51;;;;;;;27.10;14.13;;;;;0.60;102999.00;;;;9911459;29;20227;-79
2022/01/11 22:26:53;;;;;;;26.33;13.93;;;;;0.60;102987.00;;;;9897294;30;20204;-79
2022/01/11 22:31:55;;;;;;;24.53;12.67;;;;;0.60;102999.00;;;;9922547;29;20252;-79
2022/01/11 22:36:57;;;;;;;26.33;14.00;;;;;0.50;103004.00;;;;9899885;29;20234;-79
2022/01/11 22:41:59;;;;;;;23.23;14.20;;;;;0.40;103020.00;;;;9919981;29;20206;-79
2022/01/11 22:47:02;;;;;;;24.83;13.80;;;;;0.40;103018.00;;;;9926606;29;20206;-79
2022/01/11 22:52:10;;;;;;;27.40;13.83;;;;;0.30;103022.00;;;;9906156;29;20209;-79
2022/01/11 22:57:13;;;;;;;23.30;13.90;;;;;0.30;103032.00;;;;9869115;30;20223;-79
2022/01/11 23:02:16;;;;;;;26.20;14.47;;;;;0.20;103028.00;;;;9905973;29;20203;-80
2022/01/11 23:07:19;;;;;;;27.90;14.33;;;;;0.20;103012.00;;;;9919450;29;20618;-79
2022/01/11 23:12:39;;;;;;;30.83;14.37;;;;;0.20;103018.00;;;;9912026;29;20199;-79
2022/01/11 23:17:42;;;;;;;23.43;13.20;;;;;0.10;103021.00;;;;9922197;29;20191;-79
2022/01/11 23:22:43;;;;;;;33.20;14.93;;;;;0.10;103012.00;;;;9928548;29;20560;-79
2022/01/11 23:27:47;;;;;;;28.87;16.63;;;;;0.10;103006.00;;;;9941724;29;20203;-79
2022/01/11 23:32:51;;;;;;;27.47;14.43;;;;;0.10;103002.00;;;;9920943;29;20214;-79
2022/01/11 23:37:59;;;;;;;27.03;14.27;;;;;0.10;102989.00;;;;9921215;29;20230;-79
2022/01/11 23:48:11;;;;;;;29.50;14.50;;;;;0.30;103012.00;;;;9870396;29;20259;-79
2022/01/11 23:53:15;;;;;;;25.87;13.70;;;;;0.50;103027.00;;;;9936623;29;20730;-78
2022/01/11 23:58:17;;;;;;;22.17;14.40;;;;;0.60;103018.00;;;;9942347;29;20249;-79
